Time;durP1;ratioP1;P1;durP2;ratioP2;P2;SDS_P1;SDS_P2;PMS_P1;PMS_P2;Temp;Humidity;BMP_temperature;BMP_pressure;BME280_temperature;BME280_humidity;BME280_pressure;Samples;Min_cycle;Max_cycle;Signal;HPM_P1;HPM_P2
2022/05/14 00:00:10;;;;;;;6.07;4.27;;;12.30;99.90;;;;;;5072233;28;20721;-67
2022/05/14 00:02:37;;;;;;;5.07;4.10;;;12.30;99.90;;;;;;5066758;28;20732;-67
2022/05/14 00:05:05;;;;;;;7.70;4.43;;;12.30;99.90;;;;;;5074081;28;20596;-67
2022/05/14 00:07:32;;;;;;;7.77;4.37;;;12.20;99.90;;;;;;5071736;28;20567;-66
2022/05/14 00:10:00;;;;;;;5.13;4.17;;;12.20;99.90;;;;;;5072243;28;20706;-66
2022/05/14 00:15:11;;;;;;;5.30;4.27;;;12.10;99.90;;;;;;5070530;28;20212;-67
2022/05/14 00:17:38;;;;;;;4.20;3.80;;;12.10;99.90;;;;;;5069357;28;20203;-67
2022/05/14 00:20:06;;;;;;;4.53;4.13;;;12.00;99.90;;;;;;5071528;28;20240;-67
2022/05/14 00:22:33;;;;;;;6.50;4.20;;;12.00;99.90;;;;;;5072983;28;20248;-67
2022/05/14 00:25:01;;;;;;;4.80;4.30;;;12.00;99.90;;;;;;5071999;28;20372;-66
2022/05/14 00:27:28;;;;;;;6.07;4.10;;;11.90;99.90;;;;;;5073084;28;20237;-67
2022/05/14 00:29:57;;;;;;;6.83;4.50;;;12.00;99.90;;;;;;5071733;28;20256;-66
2022/05/14 00:32:24;;;;;;;7.47;4.03;;;11.90;99.90;;;;;;5072564;28;20225;-66
2022/05/14 00:34:50;;;;;;;4.73;3.77;;;11.90;99.90;;;;;;5067033;28;20233;-66
2022/05/14 00:37:17;;;;;;;5.73;4.10;;;11.90;99.90;;;;;;5071750;28;20205;-67
2022/05/14 00:39:44;;;;;;;4.03;3.73;;;11.90;99.90;;;;;;5073616;28;20349;-66
2022/05/14 00:42:12;;;;;;;9.57;4.50;;;11.80;99.90;;;;;;5064901;28;20198;-67
2022/05/14 00:44:39;;;;;;;4.67;3.70;;;11.80;99.90;;;;;;5064036;28;20209;-66
2022/05/14 00:47:14;;;;;;;8.37;6.10;;;11.90;99.90;;;;;;5076686;28;20293;-67
2022/05/14 00:49:41;;;;;;;6.77;5.20;;;11.80;99.90;;;;;;5060437;28;20201;-67
2022/05/14 00:52:13;;;;;;;8.97;5.40;;;11.80;99.90;;;;;;5070023;28;20252;-67
2022/05/14 00:54:48;;;;;;;6.40;5.27;;;11.90;99.90;;;;;;5072178;28;20197;-66
2022/05/14 00:57:20;;;;;;;7.27;5.43;;;11.90;99.90;;;;;;5069662;28;20192;-67
2022/05/14 00:59:48;;;;;;;5.97;5.13;;;11.90;99.90;;;;;;5083850;28;20227;-66
2022/05/14 01:02:15;;;;;;;8.50;5.60;;;11.80;99.90;;;;;;5071847;28;20233;-66
2022/05/14 01:04:44;;;;;;;5.73;5.20;;;11.80;99.90;;;;;;5070323;28;20220;-67
2022/05/14 01:07:17;;;;;;;6.47;5.37;;;11.80;99.90;;;;;;5072192;28;20241;-66
2022/05/14 01:09:46;;;;;;;6.47;5.53;;;11.80;99.90;;;;;;5072538;28;20197;-67
2022/05/14 01:12:14;;;;;;;5.70;5.07;;;11.80;99.90;;;;;;5072120;28;20209;-66
2022/05/14 01:14:43;;;;;;;8.13;5.53;;;11.80;99.90;;;;;;5071507;28;20219;-66
2022/05/14 01:17:10;;;;;;;6.97;5.23;;;11.80;99.90;;;;;;5068042;28;20210;-67
2022/05/14 01:19:38;;;;;;;7.47;5.30;;;11.90;99.90;;;;;;5072400;28;20296;-66
2022/05/14 01:22:16;;;;;;;6.27;4.83;;;11.90;99.90;;;;;;5072663;28;20646;-67
2022/05/14 01:27:36;;;;;;;6.97;4.87;;;11.90;99.90;;;;;;5067870;28;20631;-66
2022/05/14 01:30:04;;;;;;;7.10;5.40;;;11.90;99.90;;;;;;5073283;28;20236;-66
2022/05/14 01:32:31;;;;;;;5.40;4.90;;;11.90;99.90;;;;;;5070748;28;20578;-66
2022/05/14 01:34:58;;;;;;;5.87;5.13;;;11.90;99.90;;;;;;5062864;28;20202;-67
2022/05/14 01:37:25;;;;;;;5.33;4.83;;;11.80;99.90;;;;;;5070983;28;20299;-65
2022/05/14 01:39:52;;;;;;;5.90;5.10;;;11.80;99.90;;;;;;5074565;28;20215;-66
2022/05/14 01:42:19;;;;;;;5.43;4.60;;;11.80;99.90;;;;;;5063728;28;20288;-66
2022/05/14 01:44:47;;;;;;;5.80;4.77;;;11.80;99.90;;;;;;5074057;28;20671;-66
2022/05/14 01:47:14;;;;;;;5.60;5.00;;;11.70;99.90;;;;;;5071980;28;20717;-66
2022/05/14 01:49:41;;;;;;;5.80;5.00;;;11.70;99.90;;;;;;5076840;28;20247;-66
2022/05/14 01:52:09;;;;;;;6.40;5.77;;;11.60;99.90;;;;;;5073526;28;20212;-67
2022/05/14 01:54:36;;;;;;;6.07;4.77;;;11.60;99.90;;;;;;5076631;28;20221;-66
2022/05/14 01:57:03;;;;;;;7.80;5.10;;;11.60;99.90;;;;;;5074977;28;20567;-66
2022/05/14 01:59:30;;;;;;;5.87;5.37;;;11.50;99.90;;;;;;5074528;28;20716;-65
2022/05/14 02:01:58;;;;;;;5.20;4.70;;;11.50;99.90;;;;;;5072925;28;20198;-66
2022/05/14 02:04:25;;;;;;;5.87;4.90;;;11.50;99.90;;;;;;5076575;28;20233;-66
2022/05/14 02:06:52;;;;;;;5.67;4.50;;;11.50;99.90;;;;;;5075885;28;20578;-65
2022/05/14 02:09:20;;;;;;;5.10;4.60;;;11.50;99.90;;;;;;5075457;28;20308;-66
2022/05/14 02:11:47;;;;;;;7.40;5.07;;;11.40;99.90;;;;;;5072683;28;20300;-65
2022/05/14 02:14:14;;;;;;;7.77;5.47;;;11.40;99.90;;;;;;5076146;28;20260;-67
2022/05/14 02:16:41;;;;;;;7.10;5.03;;;11.40;99.90;;;;;;5073229;28;20213;-66
2022/05/14 02:19:09;;;;;;;6.93;4.83;;;11.40;99.90;;;;;;5074434;28;20640;-66
2022/05/14 02:21:36;;;;;;;5.97;5.17;;;11.30;99.90;;;;;;5069597;28;20266;-67
2022/05/14 02:24:04;;;;;;;8.23;5.43;;;11.30;99.90;;;;;;5076308;28;20296;-66
2022/05/14 02:26:31;;;;;;;4.73;4.30;;;11.20;99.90;;;;;;5074151;28;20217;-66
2022/05/14 02:28:58;;;;;;;6.03;4.60;;;11.20;99.90;;;;;;5075744;28;20308;-66
2022/05/14 02:31:25;;;;;;;5.97;5.37;;;11.20;99.90;;;;;;5072673;28;20268;-67
2022/05/14 02:33:52;;;;;;;5.63;4.67;;;11.20;99.90;;;;;;5073455;28;20217;-67
2022/05/14 02:36:20;;;;;;;5.43;4.60;;;11.20;99.90;;;;;;5089874;28;20209;-67
2022/05/14 02:38:47;;;;;;;5.03;4.20;;;11.20;99.90;;;;;;5074679;28;20215;-66
2022/05/14 02:41:15;;;;;;;8.40;5.10;;;11.30;99.90;;;;;;5065905;28;20202;-66
2022/05/14 02:43:42;;;;;;;5.87;4.40;;;11.30;99.90;;;;;;5072683;28;20239;-67
2022/05/14 02:46:09;;;;;;;5.00;4.50;;;11.20;99.90;;;;;;5073229;28;20297;-66
2022/05/14 02:48:36;;;;;;;7.10;4.60;;;11.30;99.90;;;;;;5075224;28;20232;-66
2022/05/14 02:51:04;;;;;;;6.30;4.87;;;11.30;99.90;;;;;;5071512;28;20292;-66
2022/05/14 02:53:33;;;;;;;6.87;4.33;;;11.30;99.90;;;;;;5075115;28;20221;-66
2022/05/14 02:55:59;;;;;;;5.83;4.43;;;11.30;99.90;;;;;;5074353;28;20240;-67
2022/05/14 03:01:12;;;;;;;6.87;4.43;;;11.30;99.90;;;;;;5069171;28;20196;-66
2022/05/14 03:03:39;;;;;;;5.07;4.53;;;11.30;99.90;;;;;;5073418;28;20233;-66
2022/05/14 03:06:05;;;;;;;5.33;3.90;;;11.30;99.90;;;;;;5075361;28;20603;-66
2022/05/14 03:08:34;;;;;;;5.67;4.50;;;11.30;99.90;;;;;;5069521;28;20213;-66
2022/05/14 03:11:01;;;;;;;6.93;4.57;;;11.30;99.90;;;;;;5066261;28;20301;-66
2022/05/14 03:13:27;;;;;;;7.07;4.40;;;11.30;99.90;;;;;;5074196;28;20645;-66
2022/05/14 03:15:54;;;;;;;5.80;4.67;;;11.50;99.90;;;;;;5074531;28;20284;-66
2022/05/14 03:18:21;;;;;;;10.20;5.00;;;11.40;99.90;;;;;;5074605;28;20299;-67
2022/05/14 03:20:48;;;;;;;6.33;4.40;;;11.50;99.90;;;;;;5072899;28;20304;-67
2022/05/14 03:23:15;;;;;;;7.47;4.40;;;11.50;99.90;;;;;;5073644;28;20262;-67
2022/05/14 03:25:43;;;;;;;9.47;4.53;;;11.60;99.90;;;;;;5074822;28;20631;-67
2022/05/14 03:28:11;;;;;;;4.73;3.80;;;11.60;99.90;;;;;;5074798;28;20210;-67
2022/05/14 03:30:37;;;;;;;4.93;4.07;;;11.60;99.90;;;;;;5074030;28;20201;-66
2022/05/14 03:33:04;;;;;;;5.33;4.27;;;11.60;99.90;;;;;;5073544;28;20288;-67
2022/05/14 03:35:32;;;;;;;7.23;4.03;;;11.60;99.90;;;;;;5073253;28;20751;-66
2022/05/14 03:37:59;;;;;;;6.17;3.97;;;11.70;99.90;;;;;;5075283;28;20232;-66
2022/05/14 03:40:26;;;;;;;6.67;3.93;;;11.70;99.90;;;;;;5071236;28;20906;-66
2022/05/14 03:42:54;;;;;;;4.43;3.77;;;11.70;99.90;;;;;;5073843;28;20268;-66
2022/05/14 03:45:21;;;;;;;4.83;4.03;;;11.70;99.90;;;;;;5070562;28;20210;-67
2022/05/14 03:47:48;;;;;;;9.30;4.30;;;11.80;99.90;;;;;;5074210;28;20300;-67
2022/05/14 03:50:15;;;;;;;5.83;4.03;;;11.80;99.90;;;;;;5071187;28;20549;-66
2022/05/14 03:52:42;;;;;;;4.80;3.80;;;11.80;99.90;;;;;;5082917;28;20208;-67
2022/05/14 03:55:09;;;;;;;5.87;4.33;;;11.80;99.90;;;;;;5078046;28;20267;-67
2022/05/14 03:57:36;;;;;;;3.93;3.50;;;11.80;99.90;;;;;;5074483;28;20684;-67
2022/05/14 04:00:07;;;;;;;6.03;4.00;;;11.80;99.90;;;;;;5070808;28;20202;-68
2022/05/14 04:02:34;;;;;;;4.10;3.70;;;11.80;99.90;;;;;;5060914;28;20201;-67
2022/05/14 04:05:00;;;;;;;8.87;4.33;;;11.90;99.90;;;;;;5073749;28;20233;-67
2022/05/14 04:07:27;;;;;;;5.90;3.80;;;11.90;99.90;;;;;;5071038;28;20300;-66
2022/05/14 04:09:54;;;;;;;4.90;3.97;;;11.90;99.90;;;;;;5072926;28;20237;-68
2022/05/14 04:12:21;;;;;;;4.17;3.60;;;12.00;99.90;;;;;;5074133;28;20231;-67
2022/05/14 04:14:48;;;;;;;5.87;3.57;;;12.00;99.90;;;;;;5073461;28;20673;-66
2022/05/14 04:17:16;;;;;;;6.30;4.17;;;12.00;99.90;;;;;;5066765;28;20575;-66
2022/05/14 04:19:43;;;;;;;5.27;3.43;;;12.00;99.90;;;;;;5067924;28;20575;-67
2022/05/14 04:22:10;;;;;;;4.63;3.67;;;12.10;99.90;;;;;;5060595;28;20297;-66
2022/05/14 04:24:36;;;;;;;4.17;3.20;;;12.10;99.90;;;;;;5073336;28;20253;-68
2022/05/14 04:27:04;;;;;;;4.77;3.60;;;12.10;99.90;;;;;;5072393;28;20262;-67
2022/05/14 04:29:31;;;;;;;5.77;3.73;;;12.20;99.90;;;;;;5071085;28;20229;-67
2022/05/14 04:31:57;;;;;;;4.57;3.40;;;12.20;99.90;;;;;;5070510;28;20205;-66
2022/05/14 04:34:26;;;;;;;6.70;4.63;;;12.20;99.90;;;;;;5075721;28;20319;-66
2022/05/14 04:36:53;;;;;;;4.80;3.53;;;12.20;99.90;;;;;;5075075;28;20229;-66
2022/05/14 04:39:19;;;;;;;6.00;3.50;;;12.20;99.90;;;;;;5063877;28;20607;-67
2022/05/14 04:41:46;;;;;;;4.97;3.67;;;12.30;99.90;;;;;;5073040;28;20631;-67
2022/05/14 04:44:13;;;;;;;5.57;3.77;;;12.30;99.90;;;;;;5072263;28;20464;-67
2022/05/14 04:46:40;;;;;;;5.57;4.13;;;12.30;99.90;;;;;;5070106;28;20201;-67
2022/05/14 04:49:07;;;;;;;5.57;3.93;;;12.30;99.90;;;;;;5071271;28;20292;-68
2022/05/14 04:51:35;;;;;;;7.83;3.73;;;12.40;99.90;;;;;;5065424;28;20232;-67
2022/05/14 04:54:02;;;;;;;5.90;3.80;;;12.40;99.90;;;;;;5068892;28;20743;-66
2022/05/14 04:56:29;;;;;;;6.17;3.40;;;12.40;99.90;;;;;;5069563;28;20308;-67
2022/05/14 04:58:56;;;;;;;5.73;3.30;;;12.40;99.90;;;;;;5072682;28;20288;-67
2022/05/14 05:01:23;;;;;;;9.30;3.90;;;12.50;99.90;;;;;;5067188;28;20232;-66
2022/05/14 05:03:49;;;;;;;5.20;3.53;;;12.50;99.90;;;;;;5073304;28;20292;-66
2022/05/14 05:06:18;;;;;;;4.03;3.53;;;12.50;99.90;;;;;;5072839;28;20269;-66
2022/05/14 05:08:46;;;;;;;4.47;3.37;;;12.60;99.90;;;;;;5072636;28;20214;-67
2022/05/14 05:11:13;;;;;;;5.87;3.47;;;12.60;99.90;;;;;;5074354;28;20208;-67
2022/05/14 05:13:40;;;;;;;4.90;3.80;;;12.60;99.90;;;;;;5074967;28;20669;-67
2022/05/14 05:16:07;;;;;;;4.90;3.97;;;12.60;99.90;;;;;;5071021;28;20213;-68
2022/05/14 05:18:34;;;;;;;7.40;3.70;;;12.60;99.90;;;;;;5077267;28;20209;-68
2022/05/14 05:21:01;;;;;;;5.70;3.60;;;12.70;99.90;;;;;;5073687;28;20233;-67
2022/05/14 05:23:28;;;;;;;5.13;3.57;;;12.70;99.90;;;;;;5077465;28;20288;-68
2022/05/14 05:25:58;;;;;;;4.20;3.63;;;12.70;99.90;;;;;;5075751;28;20233;-67
2022/05/14 05:28:25;;;;;;;4.73;3.43;;;12.70;99.90;;;;;;5077292;28;20354;-67
2022/05/14 05:30:52;;;;;;;6.10;3.50;;;12.70;99.90;;;;;;5075244;28;20219;-68
2022/05/14 05:33:22;;;;;;;5.03;3.80;;;12.70;99.90;;;;;;5072381;28;20313;-69
2022/05/14 05:35:49;;;;;;;8.80;3.90;;;12.80;99.90;;;;;;5084693;28;20654;-67
2022/05/14 05:38:16;;;;;;;4.23;3.50;;;12.90;99.90;;;;;;5084561;28;20283;-68
2022/05/14 05:40:43;;;;;;;4.30;3.50;;;12.90;99.90;;;;;;5077667;28;20200;-71
2022/05/14 05:43:12;;;;;;;6.63;3.50;;;12.90;99.90;;;;;;5091494;28;20258;-68
2022/05/14 05:45:41;;;;;;;7.80;3.37;;;13.00;99.90;;;;;;5082052;28;20197;-70
2022/05/14 05:48:10;;;;;;;5.37;4.20;;;13.00;99.90;;;;;;5080540;28;20217;-67
2022/05/14 05:50:38;;;;;;;8.60;4.40;;;13.10;99.90;;;;;;5071331;28;20200;-66
2022/05/14 05:53:05;;;;;;;9.30;3.63;;;13.10;99.90;;;;;;5081215;28;20201;-68
2022/05/14 05:58:30;;;;;;;6.50;3.83;;;13.30;99.90;;;;;;5038841;28;20207;-69
2022/05/14 06:00:57;;;;;;;5.87;3.57;;;13.50;99.90;;;;;;5075768;28;20579;-68
2022/05/14 06:03:24;;;;;;;8.60;4.47;;;13.60;99.90;;;;;;5083206;28;20204;-68
2022/05/14 06:05:51;;;;;;;4.00;3.57;;;13.70;99.90;;;;;;5095866;28;20232;-67
2022/05/14 06:08:20;;;;;;;7.93;3.73;;;13.80;99.90;;;;;;5086059;28;20220;-67
2022/05/14 06:10:47;;;;;;;6.20;3.53;;;13.90;99.90;;;;;;5069355;28;20206;-70
2022/05/14 06:13:14;;;;;;;5.37;3.27;;;14.10;99.90;;;;;;5080507;28;20317;-71
2022/05/14 06:15:42;;;;;;;3.97;3.43;;;14.20;99.90;;;;;;5075406;28;20477;-71
2022/05/14 06:18:10;;;;;;;9.10;3.60;;;14.40;99.90;;;;;;5081264;28;20205;-71
2022/05/14 06:20:38;;;;;;;4.30;3.53;;;14.60;99.90;;;;;;5081122;28;20250;-72
2022/05/14 06:23:05;;;;;;;4.93;3.47;;;14.70;99.90;;;;;;5090003;28;20203;-71
2022/05/14 06:25:32;;;;;;;4.07;3.40;;;14.80;99.90;;;;;;5082144;28;20213;-70
2022/05/14 06:27:59;;;;;;;5.27;3.10;;;14.80;99.90;;;;;;5078457;28;20216;-70
2022/05/14 06:30:26;;;;;;;4.93;2.80;;;14.80;99.90;;;;;;5079060;28;20251;-72
2022/05/14 06:32:55;;;;;;;5.47;3.37;;;14.70;99.90;;;;;;5066818;28;20205;-72
2022/05/14 06:35:22;;;;;;;6.33;3.00;;;14.70;99.90;;;;;;5080346;28;20323;-71
2022/05/14 06:37:49;;;;;;;5.60;2.93;;;14.60;99.90;;;;;;5080455;28;20213;-72
2022/05/14 06:40:15;;;;;;;5.83;3.27;;;14.60;99.90;;;;;;5070258;28;20201;-71
2022/05/14 06:42:42;;;;;;;5.10;3.00;;;14.60;99.90;;;;;;5078510;28;20673;-70
2022/05/14 06:45:10;;;;;;;4.37;3.20;;;14.60;99.90;;;;;;5091846;28;20721;-71
2022/05/14 06:47:38;;;;;;;7.47;3.03;;;14.50;99.90;;;;;;5086850;28;20228;-71
2022/05/14 06:50:07;;;;;;;4.83;3.47;;;14.50;99.90;;;;;;5075873;28;20266;-72
2022/05/14 06:52:35;;;;;;;7.37;3.43;;;14.60;99.90;;;;;;5077241;28;20705;-71
2022/05/14 06:55:02;;;;;;;7.57;3.33;;;14.60;99.90;;;;;;5075863;28;20301;-72
2022/05/14 06:57:32;;;;;;;4.43;2.97;;;14.50;99.90;;;;;;5081805;28;20239;-71
2022/05/14 07:00:00;;;;;;;5.67;3.40;;;14.50;99.90;;;;;;5090014;28;20653;-71
2022/05/14 07:02:28;;;;;;;5.17;3.13;;;14.50;99.90;;;;;;5086520;28;20205;-72
2022/05/14 07:07:42;;;;;;;5.20;3.07;;;14.40;99.90;;;;;;5090930;28;20252;-71
2022/05/14 07:10:09;;;;;;;7.03;2.70;;;14.40;99.90;;;;;;5097783;28;20200;-71
2022/05/14 07:12:36;;;;;;;7.80;3.83;;;14.50;99.90;;;;;;5089669;28;20299;-69
2022/05/14 07:15:03;;;;;;;7.40;2.80;;;14.60;99.90;;;;;;5081173;28;20224;-72
2022/05/14 07:17:31;;;;;;;6.93;2.70;;;14.70;99.90;;;;;;5067990;28;20230;-71
2022/05/14 07:19:58;;;;;;;4.23;2.90;;;14.80;99.90;;;;;;5066153;28;20211;-71
2022/05/14 07:22:25;;;;;;;4.50;2.87;;;14.90;99.90;;;;;;5069239;28;20210;-71
2022/05/14 07:24:53;;;;;;;5.37;3.00;;;14.90;99.90;;;;;;5065212;28;20212;-71
2022/05/14 07:27:20;;;;;;;7.20;3.40;;;15.00;99.90;;;;;;5067760;28;21677;-71
2022/05/14 07:29:47;;;;;;;5.77;3.33;;;15.20;99.90;;;;;;5066812;28;21291;-72
2022/05/14 07:32:15;;;;;;;5.20;3.00;;;15.30;99.90;;;;;;5066131;28;20218;-71
2022/05/14 07:34:43;;;;;;;5.63;2.97;;;15.40;99.90;;;;;;5063967;28;20232;-72
2022/05/14 07:37:13;;;;;;;7.13;3.23;;;15.50;99.90;;;;;;5064410;28;20576;-72
2022/05/14 07:39:45;;;;;;;6.87;4.17;;;15.60;99.90;;;;;;5068924;28;20663;-71
2022/05/14 07:42:19;;;;;;;8.20;3.43;;;15.70;99.90;;;;;;5067901;28;20351;-72
2022/05/14 07:44:48;;;;;;;5.57;3.50;;;15.90;99.90;;;;;;5068650;28;20720;-72
2022/05/14 07:47:15;;;;;;;7.47;3.63;;;16.10;99.90;;;;;;5069095;28;20228;-73
2022/05/14 07:49:43;;;;;;;11.07;3.23;;;16.30;99.90;;;;;;5069461;28;20213;-72
2022/05/14 07:52:10;;;;;;;5.27;3.00;;;16.50;99.90;;;;;;5069548;28;20212;-71
2022/05/14 07:54:40;;;;;;;5.70;3.70;;;16.60;99.90;;;;;;5069221;28;20252;-72
2022/05/14 07:57:07;;;;;;;7.00;4.33;;;16.70;99.90;;;;;;5073589;28;20255;-70
2022/05/14 07:59:36;;;;;;;5.93;3.57;;;16.80;99.90;;;;;;5082751;28;20208;-72
2022/05/14 08:02:05;;;;;;;8.10;3.37;;;16.90;99.90;;;;;;5079848;28;20273;-71
2022/05/14 08:04:32;;;;;;;5.63;3.22;;;17.10;99.90;;;;;;5064560;28;20233;-73
2022/05/14 08:06:59;;;;;;;3.78;2.65;;;17.20;99.90;;;;;;5071196;28;20288;-72
2022/05/14 08:09:26;;;;;;;4.37;3.00;;;17.40;99.90;;;;;;5080189;28;20247;-71
2022/05/14 08:11:53;;;;;;;9.05;3.47;;;17.60;99.80;;;;;;5093333;28;20212;-71
2022/05/14 08:14:20;;;;;;;14.25;3.75;;;17.70;99.20;;;;;;5081086;28;20324;-70
2022/05/14 08:16:49;;;;;;;6.65;3.30;;;17.70;98.60;;;;;;5084122;28;20209;-73
2022/05/14 08:19:15;;;;;;;5.28;2.78;;;17.50;98.10;;;;;;5082192;28;20197;-71
2022/05/14 08:24:34;;;;;;;4.60;3.57;;;17.10;98.10;;;;;;5085301;28;20254;-70
2022/05/14 08:27:03;;;;;;;7.32;3.35;;;16.90;98.70;;;;;;5073625;28;20216;-69
2022/05/14 08:29:30;;;;;;;6.32;3.40;;;16.70;98.90;;;;;;5071818;28;20229;-69
2022/05/14 08:31:58;;;;;;;5.50;3.25;;;16.50;99.50;;;;;;5061392;28;20296;-68
2022/05/14 08:34:25;;;;;;;6.20;3.50;;;16.50;99.90;;;;;;5076749;28;20687;-68
2022/05/14 08:36:52;;;;;;;5.87;3.30;;;16.40;99.90;;;;;;5074999;28;20281;-73
2022/05/14 08:39:19;;;;;;;8.05;3.90;;;16.30;99.90;;;;;;5073556;28;20213;-72
2022/05/14 08:41:49;;;;;;;5.20;3.30;;;16.30;99.90;;;;;;5076213;28;20213;-72
2022/05/14 08:44:21;;;;;;;5.47;3.40;;;16.20;99.90;;;;;;5071387;28;20216;-72
2022/05/14 08:46:53;;;;;;;5.37;3.07;;;16.10;99.90;;;;;;5070317;28;20204;-72
2022/05/14 08:49:28;;;;;;;7.60;3.43;;;16.00;99.90;;;;;;5070707;28;20293;-73
2022/05/14 08:51:56;;;;;;;7.80;3.30;;;15.90;99.90;;;;;;5078061;28;20704;-73
2022/05/14 08:54:24;;;;;;;4.83;3.10;;;15.80;99.90;;;;;;5080047;28;20220;-73
2022/05/14 08:57:00;;;;;;;6.10;3.20;;;15.80;99.90;;;;;;5081521;28;20255;-72
2022/05/14 08:59:40;;;;;;;8.00;3.67;;;15.80;99.90;;;;;;5089162;28;20216;-72
2022/05/14 09:02:15;;;;;;;6.33;3.57;;;15.90;99.90;;;;;;5079139;28;20334;-72
2022/05/14 09:04:43;;;;;;;3.97;3.00;;;15.90;99.90;;;;;;5078972;28;20197;-72
2022/05/14 09:07:11;;;;;;;10.50;3.53;;;16.00;99.90;;;;;;5083980;28;20205;-73
2022/05/14 09:09:48;;;;;;;5.57;3.20;;;16.10;99.90;;;;;;5088444;28;20209;-73
2022/05/14 09:12:18;;;;;;;4.40;3.20;;;16.30;99.90;;;;;;5085778;28;20287;-72
2022/05/14 09:14:46;;;;;;;5.83;2.93;;;16.40;99.90;;;;;;5083614;28;20277;-71
2022/05/14 09:17:20;;;;;;;5.37;3.40;;;16.50;99.50;;;;;;5078378;28;20208;-72
2022/05/14 09:19:50;;;;;;;4.80;2.23;;;16.60;99.20;;;;;;5075928;28;20291;-70
2022/05/14 09:22:26;;;;;;;5.20;2.37;;;16.70;98.30;;;;;;5080218;28;20287;-71
2022/05/14 09:24:56;;;;;;;8.25;2.80;;;16.70;97.90;;;;;;5088446;28;20630;-71
2022/05/14 09:27:26;;;;;;;4.88;2.40;;;17.00;97.30;;;;;;5077645;28;20219;-71
2022/05/14 09:29:56;;;;;;;5.85;2.15;;;17.30;96.20;;;;;;5081097;28;20312;-72
2022/05/14 09:32:34;;;;;;;5.00;1.90;;;17.70;95.10;;;;;;5078183;28;20236;-70
2022/05/14 09:35:13;;;;;;;4.70;2.03;;;18.00;92.90;;;;;;5077501;28;20211;-71
2022/05/14 09:37:41;;;;;;;4.90;2.17;;;18.10;91.20;;;;;;5078210;28;20205;-72
2022/05/14 09:40:14;;;;;;;5.53;1.75;;;18.20;90.40;;;;;;5082049;28;20215;-72
2022/05/14 09:42:46;;;;;;;4.60;2.00;;;18.30;89.20;;;;;;5077925;28;20217;-71
2022/05/14 09:45:24;;;;;;;5.72;1.98;;;18.40;88.70;;;;;;5081174;28;20201;-73
2022/05/14 09:47:51;;;;;;;6.47;1.95;;;18.60;86.70;;;;;;5096915;28;20204;-73
2022/05/14 09:50:23;;;;;;;2.80;1.77;;;18.50;83.60;;;;;;5089837;28;20235;-73
2022/05/14 09:53:00;;;;;;;6.30;1.55;;;18.40;81.00;;;;;;5092008;28;20254;-72
2022/05/14 09:55:50;;;;;;;5.32;1.90;;;18.40;80.60;;;;;;5079242;28;20236;-72
2022/05/14 09:58:26;;;;;;;2.97;1.70;;;18.50;79.60;;;;;;5075269;28;20258;-72
2022/05/14 10:00:59;;;;;;;4.50;1.83;;;18.70;76.70;;;;;;5088842;28;20236;-71
2022/05/14 10:03:39;;;;;;;5.03;1.63;;;19.00;75.00;;;;;;5100021;28;20204;-71
2022/05/14 10:06:25;;;;;;;4.85;1.58;;;19.20;73.90;;;;;;5067003;28;20225;-70
2022/05/14 10:09:03;;;;;;;6.15;1.80;;;19.50;71.90;;;;;;5077694;28;20202;-70
2022/05/14 10:11:32;;;;;;;9.88;2.05;;;19.60;69.60;;;;;;5079789;28;20238;-72
2022/05/14 10:14:10;;;;;;;5.95;1.77;;;19.70;68.40;;;;;;5077119;28;20236;-71
2022/05/14 10:16:42;;;;;;;5.57;2.10;;;19.80;67.80;;;;;;5077787;28;20745;-71
2022/05/14 10:19:22;;;;;;;5.40;2.05;;;19.80;67.60;;;;;;5086586;28;20217;-71
2022/05/14 10:22:07;;;;;;;3.80;1.58;;;19.80;67.90;;;;;;5081949;28;20537;-71
2022/05/14 10:28:04;;;;;;;4.75;2.17;;;19.80;68.10;;;;;;5072541;28;20187;-71
2022/05/14 10:30:44;;;;;;;5.60;2.08;;;20.00;69.30;;;;;;5078890;28;20236;-71
2022/05/14 10:33:18;;;;;;;8.73;2.17;;;20.10;67.70;;;;;;5079435;28;20289;-68
2022/05/14 10:35:54;;;;;;;7.03;1.98;;;20.10;67.90;;;;;;5081605;28;20240;-69
2022/05/14 10:38:28;;;;;;;4.90;2.08;;;20.00;67.30;;;;;;5079033;28;20192;-68
2022/05/14 10:41:02;;;;;;;6.38;2.05;;;19.90;67.00;;;;;;5085640;28;20273;-68
2022/05/14 10:43:39;;;;;;;5.20;1.80;;;19.70;67.50;;;;;;5072407;28;20302;-68
2022/05/14 10:46:09;;;;;;;9.23;1.95;;;19.50;68.00;;;;;;5074122;28;20208;-67
2022/05/14 10:48:43;;;;;;;3.38;1.73;;;19.20;68.60;;;;;;5075436;28;20287;-68
2022/05/14 10:51:12;;;;;;;4.95;2.05;;;19.10;69.10;;;;;;5078456;28;20209;-68
2022/05/14 10:53:43;;;;;;;4.78;1.55;;;19.10;68.60;;;;;;5074456;28;20209;-68
2022/05/14 10:56:14;;;;;;;6.35;1.75;;;19.00;67.90;;;;;;5082154;28;20264;-68
2022/05/14 10:58:54;;;;;;;6.05;1.65;;;18.90;68.40;;;;;;5084484;28;20199;-68
2022/05/14 11:01:31;;;;;;;6.45;1.83;;;18.70;68.00;;;;;;5076290;28;20748;-69
2022/05/14 11:04:01;;;;;;;3.38;2.10;;;18.60;67.70;;;;;;5074998;28;20211;-69
2022/05/14 11:06:30;;;;;;;6.90;1.88;;;18.50;68.00;;;;;;5082327;28;20566;-70
2022/05/14 11:08:59;;;;;;;5.82;1.63;;;18.60;68.10;;;;;;5073173;28;20205;-69
2022/05/14 11:11:28;;;;;;;4.18;1.67;;;18.80;68.00;;;;;;5079725;28;20309;-69
2022/05/14 11:14:04;;;;;;;5.40;1.92;;;19.10;67.70;;;;;;5087295;28;20293;-69
2022/05/14 11:16:40;;;;;;;4.75;1.73;;;19.40;67.20;;;;;;5089205;28;20291;-70
2022/05/14 11:19:07;;;;;;;8.25;2.05;;;19.60;66.50;;;;;;5083947;28;20341;-70
2022/05/14 11:21:39;;;;;;;6.22;1.73;;;19.80;66.00;;;;;;5094236;28;20255;-69
2022/05/14 11:24:11;;;;;;;6.43;1.70;;;19.80;65.90;;;;;;5090946;28;20208;-69
2022/05/14 11:26:47;;;;;;;4.22;2.00;;;19.60;65.90;;;;;;5086766;28;20207;-68
2022/05/14 11:29:17;;;;;;;4.38;1.85;;;19.50;65.80;;;;;;5086836;28;21028;-70
2022/05/14 11:32:02;;;;;;;5.88;1.63;;;19.40;65.70;;;;;;5093945;28;20205;-68
2022/05/14 11:34:30;;;;;;;6.15;2.10;;;19.20;65.70;;;;;;5087987;28;20256;-69
2022/05/14 11:37:00;;;;;;;10.02;2.17;;;19.00;66.10;;;;;;5075561;28;20332;-69
2022/05/14 11:39:31;;;;;;;8.82;1.77;;;18.90;66.60;;;;;;5085963;28;20229;-69
2022/05/14 11:42:27;;;;;;;5.82;1.70;;;18.80;67.00;;;;;;5079656;28;20205;-69
2022/05/14 11:45:00;;;;;;;4.80;2.03;;;18.70;67.50;;;;;;5072894;28;20205;-69
2022/05/14 11:47:56;;;;;;;5.80;2.30;;;18.70;67.80;;;;;;5076126;28;20219;-70
2022/05/14 11:50:31;;;;;;;5.25;2.10;;;18.80;68.00;;;;;;5077084;28;20194;-69
2022/05/14 11:53:09;;;;;;;5.97;1.90;;;18.80;68.30;;;;;;5079243;28;20287;-69
2022/05/14 11:55:42;;;;;;;4.53;2.05;;;18.80;68.30;;;;;;5090208;28;20224;-69
2022/05/14 11:58:14;;;;;;;5.13;1.60;;;18.90;68.40;;;;;;5083908;28;20291;-74
2022/05/14 12:00:43;;;;;;;3.88;1.60;;;18.90;67.60;;;;;;5075205;28;20224;-73
2022/05/14 12:03:18;;;;;;;4.55;1.80;;;18.80;66.80;;;;;;5074117;28;20237;-72
2022/05/14 12:05:49;;;;;;;3.60;1.67;;;18.80;66.60;;;;;;5076039;28;20228;-73
2022/05/14 12:08:36;;;;;;;5.10;1.65;;;18.80;67.20;;;;;;5082225;28;20212;-72
2022/05/14 12:11:22;;;;;;;3.70;1.45;;;18.80;67.60;;;;;;5074395;28;20236;-70
2022/05/14 12:13:56;;;;;;;6.13;2.10;;;18.70;68.10;;;;;;5069573;28;20452;-73
2022/05/14 12:16:30;;;;;;;5.00;1.52;;;18.70;67.50;;;;;;5074777;28;20300;-73
2022/05/14 12:18:57;;;;;;;2.85;1.55;;;18.60;67.70;;;;;;5075729;28;20201;-73
2022/05/14 12:21:24;;;;;;;3.17;1.67;;;18.60;68.10;;;;;;5080128;28;20256;-72
2022/05/14 12:23:51;;;;;;;4.60;1.85;;;18.70;68.20;;;;;;5081676;28;20624;-72
2022/05/14 12:26:23;;;;;;;2.83;1.45;;;18.70;67.60;;;;;;5079008;28;20632;-71
2022/05/14 12:28:50;;;;;;;4.72;1.90;;;18.60;67.30;;;;;;5071799;28;20698;-73
2022/05/14 12:34:09;;;;;;;4.40;1.83;;;18.50;66.90;;;;;;5047062;28;20201;-71
2022/05/14 12:36:40;;;;;;;5.20;1.92;;;18.40;66.90;;;;;;5092225;28;20315;-73
2022/05/14 12:39:09;;;;;;;5.55;1.77;;;18.40;67.20;;;;;;5085720;28;20207;-71
2022/05/14 12:41:41;;;;;;;6.75;1.52;;;18.40;67.00;;;;;;5073641;28;20233;-71
2022/05/14 12:44:11;;;;;;;5.53;1.80;;;18.40;66.90;;;;;;5080505;28;20228;-71
2022/05/14 12:46:40;;;;;;;6.20;1.90;;;18.40;66.80;;;;;;5080407;28;20273;-71
2022/05/14 12:49:07;;;;;;;4.13;1.73;;;18.40;66.30;;;;;;5069669;28;20640;-71
2022/05/14 12:51:34;;;;;;;6.50;2.20;;;18.40;66.40;;;;;;5081978;28;20680;-71
2022/05/14 12:54:01;;;;;;;5.82;1.90;;;18.40;66.40;;;;;;5075498;28;20301;-71
2022/05/14 12:56:32;;;;;;;7.63;1.92;;;18.50;66.70;;;;;;5086942;28;20232;-71
2022/05/14 12:59:00;;;;;;;5.03;1.45;;;18.50;66.50;;;;;;5070707;28;20202;-70
2022/05/14 13:01:30;;;;;;;4.43;1.65;;;18.60;66.40;;;;;;5075608;28;20212;-72
2022/05/14 13:04:00;;;;;;;8.27;1.80;;;18.50;65.90;;;;;;5076624;28;20258;-72
2022/05/14 13:06:31;;;;;;;7.47;1.67;;;18.50;65.80;;;;;;5073403;28;20208;-72
2022/05/14 13:09:05;;;;;;;3.05;1.50;;;18.50;66.90;;;;;;5074933;28;20224;-73
2022/05/14 13:11:35;;;;;;;5.65;1.67;;;18.40;65.80;;;;;;5077805;28;20204;-73
2022/05/14 13:14:14;;;;;;;4.20;1.70;;;18.40;66.10;;;;;;5081458;28;20328;-71
2022/05/14 13:16:41;;;;;;;4.60;1.70;;;18.40;66.10;;;;;;5074884;28;20625;-72
2022/05/14 13:19:22;;;;;;;3.63;1.25;;;18.30;66.30;;;;;;5074155;28;20247;-72